Kotel'Nikovo, Russia
Current Conditions -  °F | °C
As of 4:30 AM on Tuesday 23 Dec 2014 (Local Time) from URWW Reporting Station
Haze Haze  
Wind Chill: 18°   Ceiling: 400
Heat Index: 30°   Visibility: 2.5mi
Dew Point: 30°   Wind: 18mph
Humidity: 100%   Direction: 240°WSW
Pressure: 29.85"   Gusts: 25mph
Location:  47.63°N, 43.15°E
Report Text: URWW 230130Z 24008G11MPS 4000 BR BKN004 M01/M01 Q1011 TEMPO0400 FZFG OVC002 RMK OBST OBSC 29390049
Loading
Personal Weather Stations






























Interactive Weather Map New forecast layout! Learn more

10-Day Weather Forecast

Advertisements
Track Severe Weather on mobile